Novo Cruzeiro, Brazil
Current Conditions -  °F | °C
As of 12:00 PM on Sunday 25 Jan 2015 (Local Time) from SBMK Reporting Station
Few Clouds Few Clouds  
Wind Chill: 84°   Ceiling: Unl
Heat Index: 84°   Visibility: 6mi
Dew Point: 54°   Wind: 8mph
Humidity: 35%   Direction: NA
Pressure: 30.03"   Gusts: NA
Location:  17.48°S, 41.89°W
Report Text: SBMK 251400Z VRB07KT 9999 FEW030 29/12 Q1017
Loading
Personal Weather Stations






























Interactive Weather Map New forecast layout! Learn more

10-Day Weather Forecast

Advertisements
Track Severe Weather on mobile